Time;durP1;ratioP1;P1;durP2;ratioP2;P2;SDS_P1;SDS_P2;PMS_P1;PMS_P2;Temp;Humidity;BMP_temperature;BMP_pressure;BME280_temperature;BME280_humidity;BME280_pressure;Samples;Min_cycle;Max_cycle;Signal;HPM_P1;HPM_P2
2021/07/30 00:02:02;;;;;;;13.65;5.45;;;;;;;14.47;75.79;101188.34;4981457;28;20062;-73
2021/07/30 00:04:31;;;;;;;17.65;5.47;;;;;;;14.42;75.76;101198.41;4979411;28;21439;-72
2021/07/30 00:06:59;;;;;;;16.13;5.53;;;;;;;14.37;75.76;101188.75;4980049;28;20065;-73
2021/07/30 00:09:27;;;;;;;13.98;5.65;;;;;;;14.34;75.89;101194.25;4984736;28;20373;-72
2021/07/30 00:11:54;;;;;;;14.82;5.75;;;;;;;14.33;76.08;101189.81;4979092;28;20373;-72
2021/07/30 00:14:22;;;;;;;13.20;5.30;;;;;;;14.31;76.18;101188.13;4980611;28;20062;-73
2021/07/30 00:16:50;;;;;;;12.70;4.95;;;;;;;14.28;76.30;101190.94;4980391;28;20065;-73
2021/07/30 00:19:19;;;;;;;13.05;6.10;;;;;;;14.23;77.09;101192.94;4980252;28;20377;-73
2021/07/30 00:21:48;;;;;;;16.65;6.07;;;;;;;14.16;76.88;101184.28;4981398;28;20441;-73
2021/07/30 00:24:16;;;;;;;13.10;5.45;;;;;;;14.18;77.12;101185.97;4979111;28;20062;-73
2021/07/30 00:26:45;;;;;;;15.93;5.63;;;;;;;14.13;77.32;101185.28;4981721;28;20062;-73
2021/07/30 00:29:13;;;;;;;11.88;5.78;;;;;;;14.12;77.62;101178.16;4977578;28;20062;-73
2021/07/30 00:31:40;;;;;;;13.88;5.00;;;;;;;14.12;77.90;101177.31;4980874;28;20054;-73
2021/07/30 00:34:08;;;;;;;14.68;5.50;;;;;;;14.06;77.70;101186.47;4982701;28;20070;-74
2021/07/30 00:36:36;;;;;;;14.73;5.95;;;;;;;14.06;78.15;101178.41;4979707;28;20069;-74
2021/07/30 00:39:06;;;;;;;13.20;4.75;;;;;;;14.03;78.24;101186.59;4981701;28;20070;-74
2021/07/30 00:41:39;;;;;;;16.50;5.45;;;;;;;14.04;78.79;101179.44;4976709;28;20069;-74
2021/07/30 00:44:07;;;;;;;16.48;6.03;;;;;;;14.05;78.87;101175.81;4982519;28;20058;-73
2021/07/30 00:46:36;;;;;;;14.25;5.07;;;;;;;14.05;78.40;101171.31;4982544;28;20058;-73
2021/07/30 00:49:04;;;;;;;14.65;5.57;;;;;;;14.06;79.52;101174.84;4978901;28;20065;-73
2021/07/30 00:51:32;;;;;;;12.23;5.00;;;;;;;14.02;78.94;101171.44;4982838;28;20093;-73
2021/07/30 00:54:00;;;;;;;12.98;5.22;;;;;;;13.95;78.91;101165.44;4980299;28;20070;-74
2021/07/30 00:56:30;;;;;;;16.25;6.65;;;;;;;13.94;78.86;101160.13;4981148;28;20062;-73
2021/07/30 00:58:59;;;;;;;12.98;5.97;;;;;;;13.89;79.41;101165.69;4981516;28;20058;-71
2021/07/30 01:01:27;;;;;;;9.80;4.38;;;;;;;13.86;79.93;101163.16;4979191;28;20409;-70
2021/07/30 01:03:55;;;;;;;14.25;5.30;;;;;;;13.85;79.84;101171.25;4979295;28;20046;-72
2021/07/30 01:06:23;;;;;;;12.10;5.10;;;;;;;13.83;79.77;101168.63;4973130;28;20055;-71
2021/07/30 01:08:51;;;;;;;16.20;5.60;;;;;;;13.81;80.20;101168.69;4980115;28;20057;-70
2021/07/30 01:11:19;;;;;;;14.80;4.97;;;;;;;13.77;80.41;101167.09;4980301;28;21022;-73
2021/07/30 01:13:48;;;;;;;18.92;5.78;;;;;;;13.73;80.61;101162.75;4977435;28;20061;-73
2021/07/30 01:16:16;;;;;;;10.93;4.60;;;;;;;13.72;80.84;101169.03;4982403;28;20058;-73
2021/07/30 01:18:44;;;;;;;13.73;5.38;;;;;;;13.74;80.83;101167.19;4981333;28;20066;-73
2021/07/30 01:21:18;;;;;;;15.27;5.53;;;;;;;13.74;80.95;101172.56;4983607;28;20096;-73
2021/07/30 01:23:49;;;;;;;13.35;4.97;;;;;;;13.72;81.66;101170.88;4984293;28;20057;-74
2021/07/30 01:26:17;;;;;;;12.15;5.63;;;;;;;13.71;81.41;101179.84;4979677;28;20058;-72
2021/07/30 01:28:45;;;;;;;16.23;5.25;;;;;;;13.70;81.85;101175.41;4985615;28;20066;-73
2021/07/30 01:31:14;;;;;;;16.45;5.40;;;;;;;13.70;81.98;101173.59;4980733;28;20086;-73
2021/07/30 01:33:42;;;;;;;14.70;6.28;;;;;;;13.70;81.83;101164.69;4983619;28;20785;-73
2021/07/30 01:36:09;;;;;;;15.40;5.70;;;;;;;13.69;82.45;101165.63;4981108;28;20058;-73
2021/07/30 01:38:37;;;;;;;12.38;5.18;;;;;;;13.66;81.95;101161.25;4983236;28;20066;-73
2021/07/30 01:41:12;;;;;;;13.15;5.47;;;;;;;13.66;82.14;101166.63;4983579;28;20058;-73
2021/07/30 01:43:42;;;;;;;15.07;5.97;;;;;;;13.66;82.54;101165.75;4980929;28;20377;-73
2021/07/30 01:46:10;;;;;;;14.23;5.93;;;;;;;13.61;82.91;101164.13;4984390;28;20422;-74
2021/07/30 01:48:38;;;;;;;12.70;5.43;;;;;;;13.57;83.30;101170.56;4981430;28;20295;-74
2021/07/30 01:51:07;;;;;;;15.45;5.45;;;;;;;13.54;83.32;101165.31;4980211;28;20062;-73
2021/07/30 01:53:35;;;;;;;12.73;5.65;;;;;;;13.52;83.48;101167.19;4986920;28;20353;-73
2021/07/30 01:56:04;;;;;;;13.27;5.60;;;;;;;13.52;83.76;101169.84;4982435;28;20052;-73
2021/07/30 01:58:35;;;;;;;16.77;5.63;;;;;;;13.54;84.51;101165.31;4983694;28;20074;-73
2021/07/30 02:01:03;;;;;;;12.15;5.07;;;;;;;13.50;84.04;101158.31;4984523;28;20108;-73
2021/07/30 02:03:31;;;;;;;14.60;6.25;;;;;;;13.45;84.65;101165.69;4980222;28;20830;-73
2021/07/30 02:05:59;;;;;;;20.55;6.43;;;;;;;13.41;84.49;101159.53;4986246;28;20654;-73
2021/07/30 02:08:27;;;;;;;17.25;6.47;;;;;;;13.38;84.55;101167.72;4980422;28;20389;-69
2021/07/30 02:10:55;;;;;;;14.30;6.13;;;;;;;13.40;85.02;101155.13;4984035;28;20066;-69
2021/07/30 02:16:09;;;;;;;17.38;6.10;;;;;;;13.44;84.46;101145.16;4981394;28;20066;-69
2021/07/30 02:18:37;;;;;;;17.33;5.55;;;;;;;13.38;85.36;101146.28;4985956;28;20072;-69
2021/07/30 02:21:05;;;;;;;13.13;5.72;;;;;;;13.38;85.01;101148.06;4980046;28;20469;-69
2021/07/30 02:23:33;;;;;;;16.02;5.70;;;;;;;13.42;85.27;101144.34;4982526;28;20108;-69
2021/07/30 02:26:00;;;;;;;13.05;4.95;;;;;;;13.40;85.34;101147.09;4979570;28;20468;-69
2021/07/30 02:28:28;;;;;;;16.80;6.15;;;;;;;13.38;85.19;101142.69;4980745;28;20063;-70
2021/07/30 02:30:56;;;;;;;15.65;5.68;;;;;;;13.35;85.14;101129.41;4984599;28;20093;-70
2021/07/30 02:33:25;;;;;;;15.50;5.97;;;;;;;13.34;85.50;101131.22;4978073;28;20338;-70
2021/07/30 02:35:53;;;;;;;15.88;6.70;;;;;;;13.33;85.58;101128.59;4981889;28;20069;-70
2021/07/30 02:38:21;;;;;;;15.80;6.40;;;;;;;13.35;86.29;101130.31;4982441;28;20077;-70
2021/07/30 02:40:48;;;;;;;14.05;5.80;;;;;;;13.36;85.83;101141.88;4981749;28;20346;-70
2021/07/30 02:43:16;;;;;;;17.95;6.32;;;;;;;13.35;85.97;101134.78;4982878;28;20100;-69
2021/07/30 02:45:44;;;;;;;14.40;5.68;;;;;;;13.38;85.79;101135.56;4981679;28;20137;-69
2021/07/30 02:48:12;;;;;;;17.00;6.07;;;;;;;13.43;85.93;101136.25;4982338;28;20210;-69
2021/07/30 02:50:41;;;;;;;15.85;5.55;;;;;;;13.43;85.84;101120.16;4976436;28;20330;-70
2021/07/30 02:53:09;;;;;;;15.30;6.30;;;;;;;13.42;85.35;101125.59;4980617;28;20065;-70
2021/07/30 02:55:37;;;;;;;17.02;6.18;;;;;;;13.38;85.35;101126.63;4983464;28;20065;-70
2021/07/30 02:58:05;;;;;;;16.92;5.72;;;;;;;13.37;85.86;101133.78;4980201;28;20066;-71
2021/07/30 03:00:33;;;;;;;19.80;6.43;;;;;;;13.44;85.69;101121.88;4980761;28;20104;-70
2021/07/30 03:03:00;;;;;;;13.60;5.75;;;;;;;13.45;86.09;101117.44;4977350;28;20066;-73
2021/07/30 03:05:30;;;;;;;13.88;5.72;;;;;;;13.46;85.91;101116.47;4982734;28;20491;-73
2021/07/30 03:07:59;;;;;;;19.50;7.78;;;;;;;13.44;86.00;101113.84;4983000;28;20128;-73
2021/07/30 03:10:26;;;;;;;15.02;6.63;;;;;;;13.47;86.35;101112.88;4979959;28;20062;-70
2021/07/30 03:12:54;;;;;;;14.38;6.15;;;;;;;13.45;86.60;101112.06;4983027;28;20124;-70
2021/07/30 03:15:22;;;;;;;16.35;6.80;;;;;;;13.49;86.51;101113.69;4980589;28;20089;-70
2021/07/30 03:17:50;;;;;;;17.60;6.63;;;;;;;13.49;86.10;101102.94;4980444;28;20080;-71
2021/07/30 03:20:18;;;;;;;14.80;6.53;;;;;;;13.51;86.70;101098.41;4982845;28;20147;-70
2021/07/30 03:22:46;;;;;;;15.18;6.38;;;;;;;13.55;86.38;101099.13;4977249;28;20058;-70
2021/07/30 03:25:15;;;;;;;18.80;6.22;;;;;;;13.55;87.01;101099.13;4982533;28;20711;-70
2021/07/30 03:27:43;;;;;;;16.50;7.10;;;;;;;13.52;86.62;101097.47;4979098;28;20082;-70
2021/07/30 03:30:12;;;;;;;19.67;6.25;;;;;;;13.53;86.80;101090.28;4980722;28;20132;-71
2021/07/30 03:32:40;;;;;;;14.82;6.15;;;;;;;13.54;86.99;101094.72;4982924;28;20069;-72
2021/07/30 03:35:08;;;;;;;15.82;6.65;;;;;;;13.61;87.44;101099.78;4978952;28;20784;-71
2021/07/30 03:37:36;;;;;;;14.02;6.30;;;;;;;13.62;87.63;101106.88;4979303;28;20252;-70
2021/07/30 03:40:06;;;;;;;18.08;7.90;;;;;;;13.61;87.40;101106.94;4978746;28;20401;-70
2021/07/30 03:42:35;;;;;;;16.55;6.53;;;;;;;13.63;87.59;101100.56;4980551;28;20070;-70
2021/07/30 03:45:03;;;;;;;18.73;7.68;;;;;;;13.65;88.05;101097.84;4982093;28;20106;-71
2021/07/30 03:47:31;;;;;;;18.70;7.03;;;;;;;13.62;87.50;101097.94;4978577;28;20149;-70
2021/07/30 03:49:59;;;;;;;14.82;7.32;;;;;;;13.67;88.22;101108.50;4981685;28;20112;-70
2021/07/30 03:52:26;;;;;;;21.50;7.68;;;;;;;13.64;88.01;101096.09;4977265;28;20149;-70
2021/07/30 03:54:54;;;;;;;14.00;7.18;;;;;;;13.68;88.33;101099.53;4981024;28;20093;-70
2021/07/30 03:57:22;;;;;;;16.55;7.53;;;;;;;13.69;87.87;101101.25;4981466;28;20059;-70
2021/07/30 03:59:54;;;;;;;15.38;7.10;;;;;;;13.72;87.89;101090.41;4980038;28;20507;-71
2021/07/30 04:02:21;;;;;;;16.27;7.05;;;;;;;13.76;88.18;101102.78;4979346;28;20070;-70
2021/07/30 04:04:49;;;;;;;18.10;7.03;;;;;;;13.76;88.29;101109.00;4976708;28;20349;-71
2021/07/30 04:07:17;;;;;;;17.98;7.53;;;;;;;13.78;88.23;101100.91;4981720;28;20070;-71
2021/07/30 04:09:45;;;;;;;15.48;6.97;;;;;;;13.82;88.23;101095.34;4982105;28;20053;-70
2021/07/30 04:12:12;;;;;;;17.20;7.00;;;;;;;13.85;88.11;101088.09;4979922;28;20058;-70
2021/07/30 04:14:41;;;;;;;13.90;6.53;;;;;;;13.89;88.15;101082.53;4981936;28;20089;-74
2021/07/30 04:17:11;;;;;;;26.65;8.07;;;;;;;13.93;88.16;101075.25;4977793;28;20066;-73
2021/07/30 04:19:43;;;;;;;16.50;7.47;;;;;;;13.95;87.90;101071.56;4982336;28;20062;-74
2021/07/30 04:22:11;;;;;;;16.85;7.03;;;;;;;13.98;87.70;101078.63;4979256;28;20089;-73
2021/07/30 04:24:39;;;;;;;20.00;7.22;;;;;;;14.01;88.01;101074.00;4978648;28;20061;-73
2021/07/30 04:27:07;;;;;;;16.33;6.50;;;;;;;14.05;87.73;101079.22;4986999;28;20062;-73
2021/07/30 04:29:39;;;;;;;15.75;7.53;;;;;;;14.06;87.57;101073.75;4977911;28;20070;-74
2021/07/30 04:32:08;;;;;;;14.43;6.15;;;;;;;14.06;87.60;101065.72;4980882;28;20108;-74
2021/07/30 04:34:38;;;;;;;23.58;7.18;;;;;;;14.08;87.26;101071.03;4978369;28;20062;-73
2021/07/30 04:37:06;;;;;;;15.18;6.75;;;;;;;14.09;87.57;101070.97;4980687;28;20430;-74
2021/07/30 04:39:35;;;;;;;19.00;6.85;;;;;;;14.12;87.24;101067.28;4982791;28;20069;-74
2021/07/30 04:42:03;;;;;;;15.40;6.60;;;;;;;14.14;87.30;101060.03;4977408;28;20419;-73
2021/07/30 04:44:33;;;;;;;22.25;7.03;;;;;;;14.18;86.87;101056.25;4980320;28;20054;-73
2021/07/30 04:47:01;;;;;;;14.85;6.85;;;;;;;14.20;86.84;101059.78;4980687;28;20054;-73
2021/07/30 04:49:28;;;;;;;17.92;7.13;;;;;;;14.20;86.63;101052.59;4980647;28;20070;-73
2021/07/30 04:52:01;;;;;;;16.60;6.60;;;;;;;14.24;86.52;101050.63;4984353;28;20339;-73
2021/07/30 04:54:29;;;;;;;15.38;7.18;;;;;;;14.28;86.08;101048.69;4981005;28;20271;-73
2021/07/30 04:56:57;;;;;;;20.40;7.57;;;;;;;14.29;86.06;101054.00;4985959;28;20140;-73
2021/07/30 04:59:25;;;;;;;15.10;6.80;;;;;;;14.39;85.40;101049.09;4984273;28;20108;-70
2021/07/30 05:01:53;;;;;;;21.48;8.23;;;;;;;14.38;85.38;101047.34;4981527;28;20058;-70
2021/07/30 05:04:25;;;;;;;18.67;7.22;;;;;;;14.39;85.15;101041.91;4986939;28;20066;-70
2021/07/30 05:06:53;;;;;;;18.27;7.20;;;;;;;14.42;84.79;101045.38;4981395;28;20066;-70
2021/07/30 05:09:22;;;;;;;19.58;8.30;;;;;;;14.44;84.53;101057.81;4984146;28;20109;-70
2021/07/30 05:11:49;;;;;;;17.83;7.47;;;;;;;14.48;84.27;101054.03;4981356;28;20120;-70
2021/07/30 05:14:17;;;;;;;16.10;7.40;;;;;;;14.54;83.97;101053.78;4982834;28;20493;-70
2021/07/30 05:16:45;;;;;;;17.27;6.63;;;;;;;14.63;83.90;101051.66;4986216;28;20448;-70
2021/07/30 05:19:13;;;;;;;18.65;6.95;;;;;;;14.67;82.93;101056.78;4981196;28;20082;-70
2021/07/30 05:21:41;;;;;;;17.88;6.88;;;;;;;14.72;83.26;101049.41;4985145;28;20090;-70
2021/07/30 05:24:09;;;;;;;17.63;6.97;;;;;;;14.75;83.29;101049.25;4980816;28;20066;-71
2021/07/30 05:26:39;;;;;;;18.48;7.03;;;;;;;14.80;83.81;101048.19;4984143;28;20062;-70
2021/07/30 05:29:07;;;;;;;21.67;6.95;;;;;;;14.82;83.26;101040.94;4989896;28;20069;-70
2021/07/30 05:31:35;;;;;;;16.38;7.30;;;;;;;14.86;83.21;101039.81;4980525;28;20101;-70
2021/07/30 05:34:03;;;;;;;27.10;8.15;;;;;;;14.92;82.55;101040.41;4985507;28;20128;-70
2021/07/30 05:36:31;;;;;;;16.27;6.47;;;;;;;15.01;81.81;101031.03;4983227;28;20066;-71
2021/07/30 05:38:58;;;;;;;16.77;6.70;;;;;;;15.18;81.89;101032.91;4984905;28;20066;-74
2021/07/30 05:41:26;;;;;;;17.70;6.95;;;;;;;15.21;81.46;101035.47;4983512;28;20394;-74
2021/07/30 05:43:55;;;;;;;17.48;6.75;;;;;;;15.25;79.72;101034.38;4981559;28;20073;-75
2021/07/30 05:46:23;;;;;;;16.75;6.78;;;;;;;15.41;80.31;101031.81;4983477;28;20112;-74
2021/07/30 05:48:53;;;;;;;17.80;7.13;;;;;;;15.42;79.39;101033.53;4984234;28;20373;-74
2021/07/30 05:51:20;;;;;;;13.95;6.15;;;;;;;15.44;78.75;101015.53;4985060;28;20445;-74
2021/07/30 05:53:48;;;;;;;14.43;6.75;;;;;;;15.48;78.71;101011.75;4982866;28;20101;-75
2021/07/30 05:56:16;;;;;;;21.42;6.65;;;;;;;15.54;78.54;101015.06;4975254;28;20062;-73
2021/07/30 05:58:44;;;;;;;14.82;6.53;;;;;;;15.58;78.36;101019.34;4983247;28;20061;-73
2021/07/30 06:01:14;;;;;;;16.63;7.10;;;;;;;15.61;77.82;101013.81;4982962;28;20116;-73
2021/07/30 06:03:46;;;;;;;14.85;6.22;;;;;;;15.64;77.11;101016.34;4982791;28;20066;-72
2021/07/30 06:06:14;;;;;;;17.33;6.63;;;;;;;15.69;76.85;101012.47;4983239;28;20093;-72
2021/07/30 06:08:42;;;;;;;17.50;6.88;;;;;;;15.83;76.42;101011.81;4981691;28;20157;-72
2021/07/30 06:11:10;;;;;;;15.65;5.72;;;;;;;15.91;75.55;100999.78;4984345;28;20360;-72
2021/07/30 06:13:38;;;;;;;16.58;5.85;;;;;;;15.99;75.10;101006.50;4980886;28;20827;-72
2021/07/30 06:16:08;;;;;;;13.27;5.32;;;;;;;16.06;75.64;101009.75;4984840;28;20081;-72
2021/07/30 06:18:46;;;;;;;15.43;6.78;;;;;;;16.12;74.61;101003.16;4982066;28;20073;-72
2021/07/30 06:21:14;;;;;;;13.02;5.95;;;;;;;16.15;73.65;101006.56;4980265;28;20349;-73
2021/07/30 06:23:41;;;;;;;11.40;5.55;;;;;;;16.20;73.59;101001.81;4980525;28;20116;-73
2021/07/30 06:26:09;;;;;;;16.92;5.57;;;;;;;16.29;73.48;101002.28;4978782;28;20306;-73
2021/07/30 06:28:41;;;;;;;12.10;6.50;;;;;;;16.25;72.31;100994.34;4982285;28;20132;-73
2021/07/30 06:31:09;;;;;;;14.98;7.53;;;;;;;16.37;72.59;100989.28;4981963;28;20226;-73
2021/07/30 06:33:36;;;;;;;16.27;8.65;;;;;;;16.36;72.78;100996.50;4980520;28;20582;-73
2021/07/30 06:36:07;;;;;;;18.67;8.40;;;;;;;16.47;73.14;100985.13;4981677;28;20113;-73
2021/07/30 06:38:35;;;;;;;18.75;8.80;;;;;;;16.50;73.02;100989.47;4977641;28;20073;-74
2021/07/30 06:41:03;;;;;;;18.50;8.63;;;;;;;16.52;73.12;100985.75;4982482;28;20077;-73
2021/07/30 06:43:31;;;;;;;20.00;11.13;;;;;;;16.44;72.33;100988.84;4981449;28;20481;-73
2021/07/30 06:46:02;;;;;;;20.13;10.45;;;;;;;16.56;73.04;100981.06;4984014;28;20063;-74
2021/07/30 06:48:30;;;;;;;21.48;10.65;;;;;;;16.59;72.26;100987.13;4981840;28;20366;-73
2021/07/30 06:50:58;;;;;;;22.35;10.27;;;;;;;16.69;72.40;100979.44;4982320;28;20066;-74
2021/07/30 06:53:28;;;;;;;18.05;10.77;;;;;;;16.80;72.20;100982.41;4979972;28;20066;-74
2021/07/30 06:55:55;;;;;;;22.63;10.30;;;;;;;16.80;71.42;100985.09;4981671;28;20366;-74
2021/07/30 06:58:23;;;;;;;24.10;8.85;;;;;;;16.79;71.17;100977.97;4981048;28;20066;-74
2021/07/30 07:00:51;;;;;;;17.73;8.93;;;;;;;16.86;71.14;100978.53;4981408;28;20066;-74
2021/07/30 07:03:19;;;;;;;18.40;9.52;;;;;;;16.97;70.54;100968.00;4979246;28;20070;-74
2021/07/30 07:05:47;;;;;;;22.23;8.10;;;;;;;17.04;70.61;100967.66;4981162;28;20055;-74
2021/07/30 07:08:14;;;;;;;14.98;7.68;;;;;;;17.16;70.04;100962.44;4980780;28;20179;-74
2021/07/30 07:10:44;;;;;;;16.02;7.13;;;;;;;17.30;70.39;100968.84;4980319;28;20133;-73
2021/07/30 07:13:12;;;;;;;15.60;7.03;;;;;;;17.36;69.89;100966.66;4980409;28;20050;-73
2021/07/30 07:15:43;;;;;;;14.65;7.40;;;;;;;17.42;69.82;100956.44;4979272;28;20311;-74
2021/07/30 07:18:11;;;;;;;16.88;7.60;;;;;;;17.58;68.75;100951.03;4979493;28;20409;-74
2021/07/30 07:20:40;;;;;;;15.98;7.50;;;;;;;17.78;67.96;100944.44;4981870;28;20070;-74
2021/07/30 07:23:08;;;;;;;14.32;7.03;;;;;;;18.02;67.75;100955.59;4979805;28;20073;-74
2021/07/30 07:25:38;;;;;;;19.27;8.40;;;;;;;18.33;66.62;100941.06;4980409;28;20067;-74
2021/07/30 07:28:07;;;;;;;18.52;7.63;;;;;;;18.29;66.12;100942.22;4979235;28;20104;-75
2021/07/30 07:30:35;;;;;;;16.70;7.13;;;;;;;18.67;65.55;100938.91;4980148;28;20742;-74
2021/07/30 07:33:03;;;;;;;17.15;7.00;;;;;;;18.84;64.97;100936.00;4980926;28;20066;-73
2021/07/30 07:35:31;;;;;;;15.68;6.95;;;;;;;19.25;63.42;100919.84;4979895;28;20066;-74
2021/07/30 07:38:02;;;;;;;14.80;6.72;;;;;;;19.31;64.14;100920.31;4980379;28;20376;-73
2021/07/30 07:40:30;;;;;;;12.95;6.22;;;;;;;19.08;64.02;100915.56;4979262;28;20073;-74
2021/07/30 07:42:59;;;;;;;20.77;6.60;;;;;;;19.32;63.95;100913.91;4980918;28;20047;-74
2021/07/30 07:45:28;;;;;;;14.85;5.75;;;;;;;19.35;62.98;100915.56;4981949;28;20050;-74
2021/07/30 07:47:56;;;;;;;13.52;6.43;;;;;;;19.75;62.47;100910.13;4979620;28;20476;-74
2021/07/30 07:50:24;;;;;;;16.65;6.55;;;;;;;20.00;61.52;100901.16;4978964;28;20082;-75
2021/07/30 07:52:52;;;;;;;15.43;6.03;;;;;;;20.46;60.28;100902.41;4980128;28;20094;-73
2021/07/30 07:55:20;;;;;;;21.48;6.18;;;;;;;20.90;59.37;100892.88;4979019;28;20117;-74
2021/07/30 07:57:48;;;;;;;15.00;5.57;;;;;;;20.86;57.00;100902.25;4980938;28;20072;-73
2021/07/30 08:00:16;;;;;;;13.30;5.88;;;;;;;20.82;57.96;100898.00;4978211;28;20058;-73
2021/07/30 08:02:45;;;;;;;14.30;5.53;;;;;;;20.84;57.71;100887.91;4978940;28;20364;-74
2021/07/30 08:05:13;;;;;;;16.88;6.53;;;;;;;20.55;57.44;100892.75;4977265;28;20440;-74
2021/07/30 08:07:41;;;;;;;17.50;6.03;;;;;;;20.82;57.35;100887.16;4979842;28;20076;-74
2021/07/30 08:10:09;;;;;;;12.50;5.60;;;;;;;20.80;57.47;100899.97;4975138;28;20164;-73
2021/07/30 08:12:37;;;;;;;10.27;5.32;;;;;;;20.42;59.21;100892.78;4977163;28;20836;-74
2021/07/30 08:15:07;;;;;;;15.52;5.82;;;;;;;20.67;58.08;100900.88;4976198;28;20396;-74
2021/07/30 08:17:35;;;;;;;15.82;5.85;;;;;;;21.62;56.74;100886.53;4974915;28;20430;-74
2021/07/30 08:20:05;;;;;;;13.73;5.50;;;;;;;21.95;55.79;100885.75;4980474;28;20271;-74
2021/07/30 08:22:33;;;;;;;13.52;6.18;;;;;;;21.99;55.88;100892.66;4979810;28;20361;-74
2021/07/30 08:25:03;;;;;;;13.85;5.78;;;;;;;21.89;54.74;100888.06;4981657;28;20390;-73
2021/07/30 08:27:31;;;;;;;18.30;6.03;;;;;;;21.25;56.68;100886.66;4978107;28;20144;-74
2021/07/30 08:29:58;;;;;;;12.60;5.50;;;;;;;22.11;55.34;100884.53;4981538;28;20050;-74
2021/07/30 08:32:26;;;;;;;10.98;5.50;;;;;;;22.44;55.16;100872.81;4979563;28;20357;-73
2021/07/30 08:34:54;;;;;;;13.30;5.97;;;;;;;22.67;53.49;100873.63;4980865;28;20091;-71
2021/07/30 08:37:23;;;;;;;12.55;5.38;;;;;;;22.41;53.94;100869.47;4974750;28;20073;-71
2021/07/30 08:39:51;;;;;;;11.90;5.80;;;;;;;22.48;53.22;100879.72;4979580;28;20212;-70
2021/07/30 08:42:19;;;;;;;13.20;5.55;;;;;;;22.32;53.78;100869.25;4975633;28;20066;-71
2021/07/30 08:44:47;;;;;;;13.52;6.38;;;;;;;22.18;53.86;100858.56;4974317;28;20054;-71
2021/07/30 08:47:19;;;;;;;11.05;5.40;;;;;;;22.53;54.05;100857.59;4978329;28;20063;-70
2021/07/30 08:49:47;;;;;;;14.00;5.50;;;;;;;22.21;54.21;100852.91;4976810;28;20066;-70
2021/07/30 08:52:18;;;;;;;12.80;4.60;;;;;;;22.15;53.63;100848.84;4979135;28;20077;-70
2021/07/30 08:54:52;;;;;;;14.32;5.00;;;;;;;21.98;54.18;100852.03;4975398;28;20074;-70
2021/07/30 08:57:20;;;;;;;14.60;5.68;;;;;;;21.64;54.11;100847.44;4975834;28;20058;-70
2021/07/30 08:59:48;;;;;;;11.45;4.70;;;;;;;22.11;54.00;100835.63;4979457;28;20062;-70
2021/07/30 09:02:15;;;;;;;11.07;4.45;;;;;;;21.74;53.54;100833.13;4979163;28;20120;-70
2021/07/30 09:04:43;;;;;;;9.77;4.18;;;;;;;21.57;54.03;100848.91;4977938;28;20076;-70
2021/07/30 09:07:11;;;;;;;9.82;4.53;;;;;;;21.56;55.01;100840.88;4977060;28;20066;-70
2021/07/30 09:09:54;;;;;;;11.23;4.20;;;;;;;21.90;54.18;100838.22;4978690;28;20063;-71
2021/07/30 09:12:23;;;;;;;9.68;4.40;;;;;;;21.66;54.22;100832.84;4978983;28;20070;-73
2021/07/30 09:14:51;;;;;;;9.82;4.40;;;;;;;21.55;54.96;100831.84;4976189;28;20129;-73
2021/07/30 09:17:19;;;;;;;10.50;4.90;;;;;;;21.29;54.81;100824.88;4980948;28;20077;-73
2021/07/30 09:20:01;;;;;;;10.50;5.85;;;;;;;21.40;54.81;100831.19;4976395;28;20097;-73
2021/07/30 09:22:28;;;;;;;14.43;5.40;;;;;;;21.49;55.56;100836.91;4980702;28;20046;-73
2021/07/30 09:24:59;;;;;;;14.95;5.15;;;;;;;21.49;55.11;100836.91;4980120;28;20062;-73
2021/07/30 09:27:33;;;;;;;11.52;4.80;;;;;;;21.51;56.41;100824.09;4977115;28;20388;-73
2021/07/30 09:30:13;;;;;;;10.70;4.75;;;;;;;21.51;55.92;100830.38;4978668;28;20066;-73
2021/07/30 09:32:42;;;;;;;11.70;5.38;;;;;;;21.51;55.64;100824.94;4977865;28;20073;-73
2021/07/30 09:35:10;;;;;;;12.55;5.13;;;;;;;21.32;56.63;100830.91;4979553;28;20394;-74
2021/07/30 09:37:38;;;;;;;11.30;5.32;;;;;;;21.13;56.64;100812.50;4979054;28;20117;-73
2021/07/30 09:40:21;;;;;;;9.98;4.90;;;;;;;21.42;56.52;100817.50;4981515;28;20093;-74
2021/07/30 09:42:49;;;;;;;12.73;5.30;;;;;;;21.32;56.39;100824.59;4984221;28;20074;-74
2021/07/30 09:45:18;;;;;;;14.13;5.53;;;;;;;21.03;57.09;100809.59;4981938;28;20073;-74
2021/07/30 09:47:50;;;;;;;14.27;5.30;;;;;;;21.09;56.60;100819.13;4983811;28;20089;-73
2021/07/30 09:50:18;;;;;;;12.32;5.60;;;;;;;21.20;57.07;100816.44;4978750;28;20112;-74
2021/07/30 09:52:53;;;;;;;14.23;5.50;;;;;;;21.35;56.22;100799.94;4981868;28;20069;-73
2021/07/30 09:55:24;;;;;;;;;;;;;;;21.31;56.74;100802.03;4983822;28;20068;-70
2021/07/30 09:57:53;;;;;;;12.75;5.72;;;;;;;21.29;55.74;100800.44;4979162;28;20012;-70
2021/07/30 10:00:21;;;;;;;10.95;5.63;;;;;;;21.35;56.56;100798.13;4982969;28;20093;-71
2021/07/30 10:02:49;;;;;;;12.50;5.47;;;;;;;21.80;56.06;100789.19;4977807;28;20058;-70
2021/07/30 10:05:20;;;;;;;17.63;5.35;;;;;;;21.66;55.60;100784.88;4981528;28;20125;-69
2021/07/30 10:07:48;;;;;;;11.68;5.28;;;;;;;21.66;55.46;100790.31;4978050;28;20435;-69
2021/07/30 10:10:19;;;;;;;11.30;5.13;;;;;;;22.06;55.32;100789.78;4981505;28;20322;-70
2021/07/30 10:12:54;;;;;;;10.20;5.10;;;;;;;21.82;56.25;100787.22;4985530;28;20097;-71
2021/07/30 10:15:22;;;;;;;11.40;5.20;;;;;;;22.01;55.06;100784.75;4977916;28;20266;-71
2021/07/30 10:17:52;;;;;;;9.52;5.32;;;;;;;21.78;56.37;100777.59;4982142;28;20284;-71
2021/07/30 10:20:24;;;;;;;;;;;;;;;21.48;56.50;100776.31;4978675;28;20137;-70
2021/07/30 10:22:56;;;;;;;13.63;5.25;;;;;;;21.50;56.93;100779.78;4981305;28;19929;-71
2021/07/30 10:25:26;;;;;;;10.23;5.18;;;;;;;21.50;56.76;100779.78;4981467;28;20073;-71
2021/07/30 10:28:00;;;;;;;10.68;4.40;;;;;;;21.62;56.61;100778.81;4979530;28;20141;-72
2021/07/30 10:30:32;;;;;;;10.00;4.78;;;;;;;21.53;56.94;100781.41;4981598;28;20070;-71
2021/07/30 10:33:02;;;;;;;10.18;4.63;;;;;;;21.51;56.00;100778.81;4981329;28;20164;-71
2021/07/30 10:35:46;;;;;;;7.90;4.45;;;;;;;21.05;56.78;100777.81;4980074;28;20074;-71
2021/07/30 10:38:19;;;;;;;10.10;5.10;;;;;;;21.08;57.42;100774.00;4982473;28;20066;-71
2021/07/30 10:41:14;;;;;;;10.38;5.05;;;;;;;21.06;57.64;100787.69;4980561;28;20226;-71
2021/07/30 10:44:06;;;;;;;8.00;4.35;;;;;;;20.93;57.83;100777.91;4981355;28;20110;-71
2021/07/30 10:46:34;;;;;;;10.13;4.88;;;;;;;21.12;58.06;100772.78;4979350;28;20463;-72
2021/07/30 10:49:41;;;;;;;8.25;4.30;;;;;;;21.08;59.39;100780.28;4981858;28;20242;-71
2021/07/30 10:52:28;;;;;;;8.90;4.10;;;;;;;20.85;59.93;100771.19;4978669;28;20062;-71
2021/07/30 10:54:57;;;;;;;8.85;4.90;;;;;;;21.02;60.27;100771.75;4983827;28;20146;-72
2021/07/30 10:57:48;;;;;;;9.85;5.10;;;;;;;20.82;60.39;100763.31;4979648;28;20468;-71
2021/07/30 11:00:17;;;;;;;8.32;4.43;;;;;;;21.23;60.29;100764.66;4981798;28;20109;-73
2021/07/30 11:03:04;;;;;;;9.38;4.60;;;;;;;21.57;59.23;100762.03;4982933;28;20063;-71
2021/07/30 11:06:11;;;;;;;9.50;4.68;;;;;;;21.59;59.62;100764.59;4980058;28;20077;-71
2021/07/30 11:09:16;;;;;;;8.43;4.78;;;;;;;21.22;58.75;100764.78;4980993;28;20501;-72
2021/07/30 11:11:47;;;;;;;8.77;4.93;;;;;;;21.51;59.21;100761.66;4979455;28;20069;-71
2021/07/30 11:14:16;;;;;;;8.65;5.10;;;;;;;21.53;59.34;100767.81;4983641;28;20046;-74
2021/07/30 11:16:47;;;;;;;10.25;5.05;;;;;;;21.41;59.61;100761.47;4978125;28;20046;-74
2021/07/30 11:19:17;;;;;;;12.75;5.68;;;;;;;21.32;59.48;100763.09;4981428;28;20144;-73
2021/07/30 11:21:46;;;;;;;10.15;5.30;;;;;;;21.06;60.01;100765.97;4982200;28;20086;-74
2021/07/30 11:24:14;;;;;;;8.18;4.70;;;;;;;21.06;60.77;100765.09;4981121;28;20089;-73
2021/07/30 11:26:42;;;;;;;10.82;5.30;;;;;;;20.89;60.41;100761.84;4981692;28;20129;-74
2021/07/30 11:29:28;;;;;;;11.00;5.05;;;;;;;20.81;60.86;100767.00;4978977;28;20065;-74
2021/07/30 11:31:59;;;;;;;10.10;5.60;;;;;;;20.59;61.75;100765.00;4983769;28;20062;-74
2021/07/30 11:34:28;;;;;;;10.75;5.15;;;;;;;20.41;62.18;100771.81;4979356;28;20066;-74